Time;durP1;ratioP1;P1;durP2;ratioP2;P2;SDS_P1;SDS_P2;PMS_P1;PMS_P2;Temp;Humidity;BMP_temperature;BMP_pressure;BME280_temperature;BME280_humidity;BME280_pressure;Samples;Min_cycle;Max_cycle;Signal;HPM_P1;HPM_P2
2021/03/19 00:00:56;;;;;;;12.23;9.87;;;3.50;99.90;;;;;;5033373;28;20202;-69
2021/03/19 00:03:22;;;;;;;18.57;14.77;;;3.40;99.90;;;;;;5033070;28;20794;-69
2021/03/19 00:05:47;;;;;;;14.20;11.33;;;3.40;99.90;;;;;;5033550;28;20179;-68
2021/03/19 00:08:13;;;;;;;13.00;9.60;;;3.40;99.90;;;;;;5044619;28;20202;-68
2021/03/19 00:10:39;;;;;;;10.63;8.50;;;3.40;99.90;;;;;;5033262;28;20189;-69
2021/03/19 00:13:08;;;;;;;12.20;7.97;;;3.50;99.90;;;;;;5033103;28;20174;-69
2021/03/19 00:15:34;;;;;;;7.63;6.83;;;3.40;99.90;;;;;;5032623;28;20221;-69
2021/03/19 00:18:00;;;;;;;9.83;8.07;;;3.50;99.90;;;;;;5032909;28;20492;-68
2021/03/19 00:20:26;;;;;;;10.27;8.03;;;3.40;99.90;;;;;;5033127;28;20284;-69
2021/03/19 00:22:52;;;;;;;8.20;7.40;;;3.50;99.90;;;;;;5032995;28;20981;-69
2021/03/19 00:25:18;;;;;;;7.70;6.90;;;3.40;99.90;;;;;;5032399;28;20640;-69
2021/03/19 00:27:44;;;;;;;8.23;6.10;;;3.30;99.90;;;;;;5032734;28;20468;-69
2021/03/19 00:30:11;;;;;;;8.30;7.43;;;3.20;99.90;;;;;;5033037;28;20190;-68
2021/03/19 00:32:42;;;;;;;9.10;8.20;;;3.20;99.90;;;;;;5032467;28;20244;-68
2021/03/19 00:35:09;;;;;;;8.43;7.50;;;3.30;99.90;;;;;;5033410;28;20436;-68
2021/03/19 00:37:34;;;;;;;8.57;7.40;;;3.30;99.90;;;;;;5033397;28;20425;-68
2021/03/19 00:40:00;;;;;;;9.23;7.07;;;3.30;99.90;;;;;;5039692;28;20610;-68
2021/03/19 00:42:26;;;;;;;8.30;7.40;;;3.20;99.90;;;;;;5032322;28;20201;-68
2021/03/19 00:44:52;;;;;;;8.03;6.90;;;3.10;99.90;;;;;;5032374;28;20213;-68
2021/03/19 00:47:17;;;;;;;7.47;6.70;;;3.00;99.90;;;;;;5032409;28;20578;-68
2021/03/19 00:49:43;;;;;;;10.53;6.53;;;2.90;99.90;;;;;;5032516;28;20441;-68
2021/03/19 00:52:09;;;;;;;7.30;6.50;;;3.00;99.90;;;;;;5039641;28;20227;-68
2021/03/19 00:54:34;;;;;;;7.50;6.30;;;3.10;99.90;;;;;;5032354;28;20181;-68
2021/03/19 00:57:00;;;;;;;7.93;7.23;;;3.00;99.90;;;;;;5032451;28;20171;-68
2021/03/19 00:59:25;;;;;;;8.60;7.70;;;2.90;99.90;;;;;;5032101;28;20698;-68
2021/03/19 01:01:51;;;;;;;8.17;7.47;;;3.00;99.90;;;;;;5031847;28;20813;-68
2021/03/19 01:04:17;;;;;;;8.10;7.33;;;3.00;99.90;;;;;;5028996;28;20525;-68
2021/03/19 01:06:42;;;;;;;9.37;7.43;;;2.90;99.90;;;;;;5021143;28;20440;-68
2021/03/19 01:09:08;;;;;;;9.20;8.30;;;2.90;99.90;;;;;;5032029;28;20268;-68
2021/03/19 01:11:34;;;;;;;8.20;7.50;;;2.90;99.90;;;;;;5031345;28;20601;-68
2021/03/19 01:14:00;;;;;;;12.10;7.60;;;2.90;99.90;;;;;;5031821;28;20212;-68
2021/03/19 01:16:26;;;;;;;9.37;8.47;;;2.90;99.90;;;;;;5029885;28;20856;-69
2021/03/19 01:18:51;;;;;;;10.20;7.57;;;2.90;99.90;;;;;;5031447;28;20460;-68
2021/03/19 01:21:18;;;;;;;8.83;8.03;;;2.90;99.90;;;;;;5031822;28;20202;-68
2021/03/19 01:23:45;;;;;;;9.57;7.77;;;2.90;99.90;;;;;;5031511;28;20174;-68
2021/03/19 01:26:12;;;;;;;11.50;9.73;;;2.80;99.90;;;;;;5031874;28;20918;-68
2021/03/19 01:28:38;;;;;;;10.17;9.07;;;2.80;99.90;;;;;;5031135;28;20441;-68
2021/03/19 01:31:05;;;;;;;9.77;8.77;;;2.70;99.90;;;;;;5031433;28;20436;-68
2021/03/19 01:33:31;;;;;;;9.10;8.10;;;2.80;99.90;;;;;;5031557;28;20182;-68
2021/03/19 01:35:58;;;;;;;10.83;9.07;;;2.80;99.90;;;;;;5031185;28;20436;-68
2021/03/19 01:38:24;;;;;;;15.53;9.70;;;2.80;99.90;;;;;;5030928;28;20272;-68
2021/03/19 01:40:50;;;;;;;12.80;9.73;;;2.70;99.90;;;;;;5031279;28;20540;-68
2021/03/19 01:43:35;;;;;;;11.37;10.07;;;2.70;99.90;;;;;;5031277;28;20176;-68
2021/03/19 01:46:38;;;;;;;13.87;10.00;;;2.80;99.90;;;;;;5030847;28;20522;-68
2021/03/19 01:49:41;;;;;;;13.63;9.43;;;2.70;99.90;;;;;;5030865;28;20459;-68
2021/03/19 01:52:44;;;;;;;13.00;10.13;;;2.70;99.90;;;;;;5031270;28;20435;-68
2021/03/19 01:55:47;;;;;;;10.57;9.30;;;2.60;99.90;;;;;;5030569;28;20459;-68
2021/03/19 01:58:50;;;;;;;11.87;10.33;;;2.50;99.90;;;;;;5030928;28;21049;-68
2021/03/19 02:01:54;;;;;;;12.50;9.90;;;2.50;99.90;;;;;;5028376;28;20463;-68
2021/03/19 02:04:57;;;;;;;11.03;8.77;;;2.50;99.90;;;;;;4980162;28;20483;-68
2021/03/19 02:08:00;;;;;;;12.00;9.57;;;2.50;99.90;;;;;;5029987;28;20433;-68
2021/03/19 02:11:03;;;;;;;14.63;9.83;;;2.40;99.90;;;;;;5030558;28;20524;-68
2021/03/19 02:14:06;;;;;;;12.20;9.47;;;2.30;99.90;;;;;;5030771;28;20464;-68
2021/03/19 02:17:09;;;;;;;12.47;10.20;;;2.20;99.90;;;;;;5029933;28;20424;-69
2021/03/19 02:20:12;;;;;;;16.40;10.97;;;2.10;99.90;;;;;;5030496;28;20507;-68
2021/03/19 02:23:15;;;;;;;12.70;10.30;;;1.90;99.90;;;;;;5030332;28;20529;-68
2021/03/19 02:26:18;;;;;;;11.50;10.03;;;1.80;99.90;;;;;;5030557;28;21121;-68
2021/03/19 02:29:21;;;;;;;10.50;9.20;;;1.70;99.90;;;;;;5030391;28;20549;-68
2021/03/19 02:32:01;;;;;;;13.67;10.10;;;1.70;99.90;;;;;;5015428;28;20511;-68
2021/03/19 02:34:47;;;;;;;13.80;10.00;;;1.60;99.90;;;;;;5029792;28;20436;-68
2021/03/19 02:37:18;;;;;;;11.33;10.10;;;1.60;99.90;;;;;;5030572;28;20436;-68
2021/03/19 02:39:44;;;;;;;12.67;11.37;;;1.60;99.90;;;;;;5030456;28;20460;-68
2021/03/19 02:42:12;;;;;;;10.23;9.13;;;1.60;99.90;;;;;;5030579;28;20518;-68
2021/03/19 02:44:38;;;;;;;12.50;11.10;;;1.60;99.90;;;;;;5030610;28;20235;-68
2021/03/19 02:47:05;;;;;;;13.70;10.97;;;1.60;99.90;;;;;;5029988;28;20528;-68
2021/03/19 02:49:31;;;;;;;13.30;11.73;;;1.70;99.90;;;;;;5030439;28;20456;-68
2021/03/19 02:51:57;;;;;;;12.27;10.97;;;1.70;99.90;;;;;;5030046;28;20452;-68
2021/03/19 02:54:24;;;;;;;12.87;10.70;;;1.80;99.90;;;;;;5030458;28;20440;-68
2021/03/19 02:56:50;;;;;;;12.23;10.90;;;1.70;99.90;;;;;;5030304;28;20182;-68
2021/03/19 02:59:17;;;;;;;12.83;10.83;;;1.70;99.90;;;;;;5030187;28;20460;-68
2021/03/19 03:01:43;;;;;;;13.13;11.70;;;1.70;99.90;;;;;;5030072;28;20469;-68
2021/03/19 03:04:09;;;;;;;15.70;10.90;;;1.60;99.90;;;;;;5030381;28;20432;-68
2021/03/19 03:06:49;;;;;;;12.50;11.20;;;1.60;99.90;;;;;;5030077;28;20178;-68
2021/03/19 03:09:18;;;;;;;14.50;11.10;;;1.60;99.90;;;;;;5024636;28;20482;-68
2021/03/19 03:11:45;;;;;;;14.27;12.27;;;1.60;99.90;;;;;;5030128;28;20444;-68
2021/03/19 03:14:13;;;;;;;13.73;11.60;;;1.50;99.90;;;;;;5030004;28;20440;-68
2021/03/19 03:16:40;;;;;;;13.53;12.27;;;1.60;99.90;;;;;;5029983;28;20936;-68
2021/03/19 03:19:08;;;;;;;16.63;11.17;;;1.60;99.90;;;;;;5029942;28;20533;-69
2021/03/19 03:21:34;;;;;;;14.30;11.87;;;1.70;99.90;;;;;;5030049;28;20482;-68
2021/03/19 03:24:01;;;;;;;19.00;12.50;;;1.70;99.90;;;;;;5028098;28;20433;-68
2021/03/19 03:26:26;;;;;;;17.60;12.40;;;1.70;99.90;;;;;;5029785;28;21043;-68
2021/03/19 03:28:52;;;;;;;16.43;12.53;;;1.70;99.90;;;;;;5029885;28;20547;-69
2021/03/19 03:31:18;;;;;;;12.93;10.73;;;1.60;99.90;;;;;;5030015;28;20656;-68
2021/03/19 03:33:43;;;;;;;12.67;11.07;;;1.70;99.90;;;;;;5031265;28;20190;-68
2021/03/19 03:36:09;;;;;;;12.03;10.77;;;1.70;99.90;;;;;;5033465;28;20197;-68
2021/03/19 03:38:35;;;;;;;13.83;12.27;;;1.80;99.90;;;;;;5033620;28;20214;-68
2021/03/19 03:41:10;;;;;;;17.17;12.00;;;1.90;99.90;;;;;;5033585;28;20251;-68
2021/03/19 03:43:36;;;;;;;12.60;10.97;;;2.00;99.90;;;;;;5033778;28;20174;-68
2021/03/19 03:46:05;;;;;;;14.93;11.10;;;2.10;99.90;;;;;;5033241;28;20443;-68
2021/03/19 03:48:33;;;;;;;13.53;11.13;;;2.20;99.90;;;;;;5032964;28;20468;-68
2021/03/19 03:50:59;;;;;;;14.83;10.90;;;2.30;99.90;;;;;;5033762;28;20429;-68
2021/03/19 03:53:25;;;;;;;12.83;11.40;;;2.30;99.90;;;;;;5033068;28;20436;-69
2021/03/19 03:55:51;;;;;;;17.23;13.07;;;2.30;99.90;;;;;;5033263;28;20870;-68
2021/03/19 03:58:18;;;;;;;11.83;10.57;;;2.40;99.90;;;;;;5033270;28;20202;-68
2021/03/19 04:00:43;;;;;;;17.10;12.07;;;2.40;99.90;;;;;;5033035;28;20473;-69
2021/03/19 04:03:11;;;;;;;12.57;11.23;;;2.40;99.90;;;;;;5033531;28;20433;-69
2021/03/19 04:05:43;;;;;;;11.87;10.67;;;2.40;99.90;;;;;;5031508;28;20184;-68
2021/03/19 04:08:11;;;;;;;15.50;12.57;;;2.40;99.90;;;;;;5032976;28;21032;-69
2021/03/19 04:10:37;;;;;;;12.07;10.30;;;2.50;99.90;;;;;;5033481;28;20441;-68
2021/03/19 04:13:04;;;;;;;13.00;11.70;;;2.50;99.90;;;;;;5032840;28;20554;-69
2021/03/19 04:15:30;;;;;;;13.67;12.27;;;2.50;99.90;;;;;;5032880;28;20464;-68
2021/03/19 04:17:59;;;;;;;13.43;12.03;;;2.60;99.90;;;;;;5032751;28;20460;-69
2021/03/19 04:20:26;;;;;;;12.60;11.30;;;2.60;99.90;;;;;;5032644;28;20527;-69
2021/03/19 04:22:52;;;;;;;15.40;12.97;;;2.60;99.90;;;;;;5032586;28;20443;-69
2021/03/19 04:25:19;;;;;;;11.97;10.77;;;2.50;99.90;;;;;;5032410;28;20490;-68
2021/03/19 04:27:51;;;;;;;12.27;10.97;;;2.50;99.90;;;;;;5032880;28;20494;-69
2021/03/19 04:30:23;;;;;;;13.33;11.97;;;2.40;99.90;;;;;;5032751;28;20471;-68
2021/03/19 04:32:50;;;;;;;14.73;12.20;;;2.40;99.90;;;;;;5031760;28;20785;-69
2021/03/19 04:35:24;;;;;;;14.87;12.07;;;2.40;99.90;;;;;;5031899;28;20461;-69
2021/03/19 04:37:51;;;;;;;16.20;13.47;;;2.30;99.90;;;;;;5033025;28;20483;-69
2021/03/19 04:40:18;;;;;;;14.03;12.53;;;2.30;99.90;;;;;;5017738;28;20524;-69
2021/03/19 04:42:44;;;;;;;14.20;12.30;;;2.30;99.90;;;;;;5029619;28;20804;-68
2021/03/19 04:45:11;;;;;;;17.40;14.50;;;2.30;99.90;;;;;;5031998;28;20946;-69
2021/03/19 04:47:37;;;;;;;15.03;13.47;;;2.30;99.90;;;;;;5032220;28;20445;-68
2021/03/19 04:50:05;;;;;;;14.60;13.00;;;2.30;99.90;;;;;;5032254;28;20571;-68
2021/03/19 04:52:31;;;;;;;15.87;13.83;;;2.30;99.90;;;;;;5031850;28;20182;-69
2021/03/19 04:55:00;;;;;;;14.03;12.67;;;2.30;99.90;;;;;;5032093;28;20494;-69
2021/03/19 04:57:26;;;;;;;18.30;13.17;;;2.30;99.90;;;;;;5032258;28;20216;-69
2021/03/19 04:59:51;;;;;;;17.97;13.37;;;2.50;99.90;;;;;;5031317;28;20468;-68
2021/03/19 05:02:17;;;;;;;13.53;11.97;;;2.50;99.90;;;;;;5031903;28;20206;-69
2021/03/19 05:04:42;;;;;;;14.40;12.90;;;2.50;99.90;;;;;;5035509;28;20180;-68
2021/03/19 05:07:09;;;;;;;12.83;11.60;;;2.60;99.90;;;;;;5032014;28;20204;-69
2021/03/19 05:09:36;;;;;;;15.10;13.00;;;2.70;99.90;;;;;;5035639;28;20272;-68
2021/03/19 05:12:03;;;;;;;13.40;12.03;;;2.70;99.90;;;;;;5032143;28;20445;-69
2021/03/19 05:14:29;;;;;;;15.57;13.70;;;2.70;99.90;;;;;;5031781;28;20977;-68
2021/03/19 05:16:55;;;;;;;14.57;13.10;;;2.60;99.90;;;;;;5031725;28;20437;-69
2021/03/19 05:19:21;;;;;;;14.03;12.43;;;2.60;99.90;;;;;;5032504;28;20194;-69
2021/03/19 05:21:47;;;;;;;18.13;12.97;;;2.60;99.90;;;;;;5043045;28;20812;-69
2021/03/19 05:24:13;;;;;;;16.60;13.40;;;2.60;99.90;;;;;;5035399;28;20469;-68
2021/03/19 05:26:40;;;;;;;14.37;12.97;;;2.50;99.90;;;;;;5031722;28;20460;-69
2021/03/19 05:29:10;;;;;;;15.83;13.73;;;2.60;99.90;;;;;;5031961;28;20573;-68
2021/03/19 05:31:36;;;;;;;14.93;13.40;;;2.70;99.90;;;;;;5031456;28;20441;-68
2021/03/19 05:34:01;;;;;;;13.83;12.43;;;2.70;99.90;;;;;;5031796;28;20510;-69
2021/03/19 05:36:29;;;;;;;13.37;12.17;;;2.60;99.90;;;;;;5031478;28;20178;-69
2021/03/19 05:38:55;;;;;;;15.33;13.73;;;2.60;99.90;;;;;;5020322;28;20198;-69
2021/03/19 05:41:25;;;;;;;16.93;13.80;;;2.60;99.90;;;;;;5031299;28;20952;-68
2021/03/19 05:44:03;;;;;;;16.13;14.30;;;2.60;99.90;;;;;;5031111;28;20591;-69
2021/03/19 05:46:32;;;;;;;16.30;14.27;;;2.60;99.90;;;;;;5030918;28;20507;-69
2021/03/19 05:49:01;;;;;;;15.47;13.50;;;2.60;99.90;;;;;;5031178;28;21109;-68
2021/03/19 05:51:47;;;;;;;16.00;13.50;;;2.70;99.90;;;;;;5031456;28;20511;-68
2021/03/19 05:54:27;;;;;;;15.30;13.17;;;2.80;99.90;;;;;;5031195;28;20846;-69
2021/03/19 05:57:04;;;;;;;13.97;11.87;;;2.90;99.90;;;;;;5030553;28;20425;-69
2021/03/19 05:59:35;;;;;;;14.77;12.30;;;2.90;99.90;;;;;;5030758;28;20448;-69
2021/03/19 06:02:01;;;;;;;13.00;11.23;;;2.90;99.90;;;;;;5031002;28;20976;-69
2021/03/19 06:04:30;;;;;;;12.87;11.57;;;3.00;99.90;;;;;;5031053;28;20429;-68
2021/03/19 06:07:03;;;;;;;14.10;12.13;;;3.00;99.90;;;;;;5030854;28;20787;-69
2021/03/19 06:09:35;;;;;;;14.30;12.90;;;3.20;99.90;;;;;;5031021;28;20441;-69
2021/03/19 06:12:14;;;;;;;15.60;14.10;;;3.20;99.90;;;;;;5022011;28;20441;-69
2021/03/19 06:14:48;;;;;;;15.27;13.47;;;3.10;99.90;;;;;;5029944;28;20451;-69
2021/03/19 06:17:44;;;;;;;15.07;13.50;;;3.10;99.90;;;;;;5031263;28;20432;-68
2021/03/19 06:20:13;;;;;;;16.90;13.43;;;3.10;99.90;;;;;;5032374;28;20437;-68
2021/03/19 06:22:54;;;;;;;15.83;13.93;;;3.10;99.90;;;;;;5039109;28;20480;-68
2021/03/19 06:25:23;;;;;;;14.83;13.33;;;3.10;99.90;;;;;;5030303;28;20512;-69
2021/03/19 06:27:55;;;;;;;14.93;13.40;;;3.10;99.90;;;;;;5030473;28;20445;-68
2021/03/19 06:30:28;;;;;;;17.33;14.43;;;3.10;99.90;;;;;;5029958;28;20506;-68
2021/03/19 06:33:24;;;;;;;15.73;12.90;;;3.00;99.90;;;;;;5030187;28;20532;-69
2021/03/19 06:36:10;;;;;;;15.40;13.00;;;3.00;99.90;;;;;;5028330;28;20877;-68
2021/03/19 06:38:42;;;;;;;14.87;12.37;;;3.00;99.90;;;;;;5027750;28;20816;-68
2021/03/19 06:41:26;;;;;;;14.90;13.03;;;3.00;99.90;;;;;;5030044;28;20587;-68
2021/03/19 06:43:53;;;;;;;15.67;14.07;;;3.00;99.90;;;;;;5030093;28;20432;-68
2021/03/19 06:46:34;;;;;;;18.90;14.67;;;3.00;99.90;;;;;;5030367;28;20430;-68
2021/03/19 06:49:03;;;;;;;16.00;13.83;;;2.90;99.90;;;;;;5030108;28;20540;-68
2021/03/19 06:51:35;;;;;;;17.30;15.50;;;3.00;99.90;;;;;;5030188;28;20783;-68
2021/03/19 06:54:17;;;;;;;17.50;15.70;;;3.10;99.90;;;;;;5030356;28;20440;-68
2021/03/19 06:57:05;;;;;;;17.30;15.50;;;3.20;99.90;;;;;;5029723;28;20432;-68
2021/03/19 06:59:50;;;;;;;17.87;15.93;;;3.30;99.90;;;;;;5022846;28;20534;-68
2021/03/19 07:02:24;;;;;;;16.00;14.23;;;3.40;99.90;;;;;;5026342;28;20460;-68
2021/03/19 07:04:55;;;;;;;16.80;13.90;;;3.40;99.90;;;;;;5028770;28;20774;-69
2021/03/19 07:07:49;;;;;;;20.80;16.10;;;3.40;99.90;;;;;;5030150;28;20440;-68
2021/03/19 07:10:45;;;;;;;19.30;16.80;;;3.30;99.90;;;;;;5033837;28;20436;-68
2021/03/19 07:13:35;;;;;;;23.53;17.37;;;3.30;99.90;;;;;;5034137;28;20443;-68
2021/03/19 07:16:30;;;;;;;19.43;16.13;;;3.20;99.90;;;;;;5033855;28;20464;-68
2021/03/19 07:19:11;;;;;;;18.90;16.40;;;3.20;99.90;;;;;;5000795;28;20592;-69
2021/03/19 07:21:58;;;;;;;20.70;16.80;;;3.40;99.90;;;;;;5034044;28;20467;-69
2021/03/19 07:24:29;;;;;;;20.90;16.93;;;3.40;99.90;;;;;;5034336;28;20806;-69
2021/03/19 07:27:16;;;;;;;21.63;19.10;;;3.50;99.90;;;;;;5026638;28;20519;-70
2021/03/19 07:30:14;;;;;;;19.47;15.13;;;3.60;99.90;;;;;;5012645;28;20586;-69
2021/03/19 07:32:39;;;;;;;23.40;18.77;;;3.60;99.90;;;;;;5033794;28;20433;-69
2021/03/19 07:35:33;;;;;;;17.33;15.53;;;3.60;99.90;;;;;;5033757;28;20782;-69
2021/03/19 07:38:23;;;;;;;25.03;18.47;;;3.40;99.90;;;;;;5033617;28;20656;-69
2021/03/19 07:40:49;;;;;;;20.73;18.57;;;3.50;99.90;;;;;;5032257;28;20455;-69
2021/03/19 07:43:20;;;;;;;21.30;16.17;;;3.70;99.90;;;;;;5033601;28;20828;-69
2021/03/19 07:46:11;;;;;;;23.73;17.77;;;3.80;99.90;;;;;;5033193;28;20193;-68
2021/03/19 07:49:01;;;;;;;21.37;18.47;;;3.90;99.90;;;;;;5033668;28;20460;-69
2021/03/19 07:51:41;;;;;;;26.03;20.10;;;4.00;99.90;;;;;;5033783;28;20583;-70
2021/03/19 07:54:14;;;;;;;19.07;16.30;;;4.00;99.90;;;;;;5033664;28;20428;-69
2021/03/19 07:57:06;;;;;;;17.30;15.00;;;4.10;99.90;;;;;;5033333;28;20424;-70
2021/03/19 08:00:02;;;;;;;16.43;13.47;;;4.30;99.90;;;;;;5033315;28;20452;-69
2021/03/19 08:02:49;;;;;;;14.07;12.67;;;4.30;99.90;;;;;;5033474;28;20464;-70
2021/03/19 08:05:24;;;;;;;14.93;12.03;;;4.30;99.90;;;;;;5033145;28;20459;-68
2021/03/19 08:08:15;;;;;;;17.60;13.77;;;4.30;99.90;;;;;;5032890;28;20889;-68
2021/03/19 08:11:08;;;;;;;13.30;11.50;;;4.40;99.90;;;;;;5033350;28;20433;-68
2021/03/19 08:14:01;;;;;;;14.03;11.17;;;4.80;99.90;;;;;;5033150;28;20421;-66
2021/03/19 08:16:34;;;;;;;13.60;11.50;;;4.90;99.90;;;;;;5032914;28;20930;-67
2021/03/19 08:19:30;;;;;;;12.53;9.90;;;4.90;99.90;;;;;;5032724;28;20879;-65
2021/03/19 08:22:11;;;;;;;9.70;8.70;;;5.10;99.90;;;;;;5033083;28;20460;-66
2021/03/19 08:24:58;;;;;;;14.97;12.47;;;5.20;99.90;;;;;;5033164;28;20516;-66
2021/03/19 08:27:48;;;;;;;9.87;8.70;;;5.30;99.90;;;;;;5033538;28;20429;-66
2021/03/19 08:30:30;;;;;;;9.43;8.53;;;5.40;99.90;;;;;;5025039;28;20429;-67
2021/03/19 08:33:44;;;;;;;9.80;8.87;;;5.50;99.90;;;;;;5031763;28;20428;-66
2021/03/19 08:36:25;;;;;;;9.00;8.10;;;5.40;99.90;;;;;;5032509;28;20421;-66
2021/03/19 08:38:55;;;;;;;11.80;9.73;;;5.40;99.90;;;;;;5033170;28;20444;-66
2021/03/19 08:41:36;;;;;;;11.50;10.30;;;5.10;99.90;;;;;;5032575;28;20467;-66
2021/03/19 08:44:06;;;;;;;12.97;10.93;;;5.10;99.90;;;;;;5032678;28;20433;-66
2021/03/19 08:46:34;;;;;;;12.30;10.50;;;5.00;99.90;;;;;;5026219;28;20433;-66
2021/03/19 08:49:01;;;;;;;14.57;13.07;;;4.80;99.90;;;;;;5021252;28;20460;-65
2021/03/19 08:51:26;;;;;;;15.20;13.30;;;4.60;99.90;;;;;;5027687;28;20436;-66
2021/03/19 08:54:17;;;;;;;15.17;13.13;;;4.60;99.90;;;;;;5029017;28;20927;-65
2021/03/19 08:56:46;;;;;;;14.90;12.30;;;4.70;99.90;;;;;;5027649;28;20239;-66
2021/03/19 08:59:35;;;;;;;16.40;14.10;;;4.60;99.90;;;;;;5029354;28;20453;-65
2021/03/19 09:02:24;;;;;;;14.97;12.20;;;4.60;99.90;;;;;;5028688;28;20558;-65
2021/03/19 09:04:53;;;;;;;17.47;13.40;;;4.60;99.90;;;;;;5028659;28;20433;-66
2021/03/19 09:07:37;;;;;;;17.43;12.97;;;4.70;99.90;;;;;;5029092;28;20437;-66
2021/03/19 09:10:18;;;;;;;16.03;12.70;;;4.80;99.90;;;;;;5028932;28;20949;-66
2021/03/19 09:12:56;;;;;;;17.20;11.80;;;4.60;99.90;;;;;;5029373;28;20804;-66
2021/03/19 09:15:22;;;;;;;15.17;12.17;;;4.50;99.90;;;;;;5027509;28;20451;-66
2021/03/19 09:17:50;;;;;;;14.47;11.57;;;4.40;99.90;;;;;;5029305;28;20846;-66
2021/03/19 09:20:38;;;;;;;13.87;11.50;;;4.40;99.90;;;;;;5029111;28;20519;-66
2021/03/19 09:23:12;;;;;;;15.37;12.40;;;4.50;99.90;;;;;;5028915;28;20440;-66
2021/03/19 09:26:29;;;;;;;15.40;12.80;;;4.40;99.90;;;;;;5028275;28;20436;-66
2021/03/19 09:28:59;;;;;;;15.23;12.23;;;4.40;99.90;;;;;;5028387;28;20467;-67
2021/03/19 09:31:24;;;;;;;15.60;12.67;;;4.60;99.90;;;;;;5022912;28;20810;-67
2021/03/19 09:33:50;;;;;;;14.83;12.70;;;4.90;99.90;;;;;;5028747;28;20424;-66
2021/03/19 09:36:53;;;;;;;15.73;13.13;;;5.30;99.90;;;;;;5028563;28;20181;-69
2021/03/19 09:39:57;;;;;;;15.20;11.93;;;5.60;99.90;;;;;;5040204;28;20288;-66
2021/03/19 09:42:22;;;;;;;16.83;12.43;;;5.50;99.90;;;;;;5022457;28;20476;-67
2021/03/19 09:45:03;;;;;;;11.67;10.27;;;5.30;99.90;;;;;;5027330;28;20437;-68
2021/03/19 09:47:37;;;;;;;14.00;11.20;;;5.20;99.90;;;;;;5027888;28;20193;-66
2021/03/19 09:50:10;;;;;;;13.87;11.10;;;5.00;99.90;;;;;;5027641;28;20819;-67
2021/03/19 09:52:37;;;;;;;14.10;11.33;;;4.90;99.90;;;;;;5028283;28;20460;-66
2021/03/19 09:55:18;;;;;;;14.10;10.73;;;4.80;99.90;;;;;;5028013;28;20548;-67
2021/03/19 09:57:45;;;;;;;13.23;10.73;;;4.50;99.90;;;;;;5027867;28;21061;-67
2021/03/19 10:00:16;;;;;;;10.00;9.00;;;4.20;99.90;;;;;;5027910;28;20464;-67
2021/03/19 10:02:42;;;;;;;11.67;10.53;;;4.00;99.90;;;;;;5026076;28;20555;-67
2021/03/19 10:05:19;;;;;;;14.00;10.50;;;3.90;99.90;;;;;;5027517;28;21198;-67
2021/03/19 10:07:54;;;;;;;10.20;9.20;;;4.00;99.90;;;;;;5028147;28;20471;-66
2021/03/19 10:10:25;;;;;;;12.77;10.40;;;4.00;99.90;;;;;;5027719;28;20806;-67
2021/03/19 10:12:51;;;;;;;10.63;9.53;;;4.20;99.90;;;;;;5027991;28;20448;-67
2021/03/19 10:15:21;;;;;;;11.40;10.20;;;4.50;99.90;;;;;;5027426;28;20437;-66
2021/03/19 10:17:56;;;;;;;13.83;10.20;;;5.10;99.90;;;;;;5027713;28;20453;-67
2021/03/19 10:20:42;;;;;;;12.03;10.70;;;6.10;99.90;;;;;;5023937;28;20429;-67
2021/03/19 10:23:07;;;;;;;10.50;9.50;;;7.00;99.90;;;;;;5019759;28;20488;-68
2021/03/19 10:25:35;;;;;;;14.10;11.50;;;7.70;99.90;;;;;;5027439;28;21257;-66
2021/03/19 10:28:16;;;;;;;10.17;9.17;;;7.70;99.90;;;;;;5023510;28;20230;-67
2021/03/19 10:30:52;;;;;;;11.20;10.00;;;7.50;99.90;;;;;;5022830;28;20854;-66
2021/03/19 10:33:19;;;;;;;11.23;10.07;;;6.70;99.90;;;;;;5027408;28;20424;-67
2021/03/19 10:36:00;;;;;;;13.93;10.30;;;6.40;99.90;;;;;;5027110;28;20429;-66
2021/03/19 10:38:37;;;;;;;13.40;11.40;;;6.00;99.90;;;;;;5027682;28;20432;-67
2021/03/19 10:41:22;;;;;;;12.10;9.20;;;5.70;99.90;;;;;;5027217;28;20456;-67
2021/03/19 10:44:06;;;;;;;10.43;9.37;;;5.70;99.90;;;;;;5024831;28;20536;-67
2021/03/19 10:46:42;;;;;;;11.10;9.97;;;5.30;99.90;;;;;;5028677;28;20448;-66
2021/03/19 10:49:24;;;;;;;11.70;10.20;;;5.30;99.90;;;;;;5030496;28;21050;-66
2021/03/19 10:52:02;;;;;;;12.27;11.07;;;5.40;99.90;;;;;;5030848;28;20574;-67
2021/03/19 10:54:39;;;;;;;13.57;9.93;;;5.40;99.90;;;;;;5030914;28;20432;-65
2021/03/19 10:57:25;;;;;;;10.60;8.97;;;5.50;99.90;;;;;;5030416;28;20435;-66
2021/03/19 10:59:52;;;;;;;12.10;9.80;;;5.80;99.90;;;;;;5030211;28;20429;-67
2021/03/19 11:02:29;;;;;;;9.87;8.33;;;5.90;99.90;;;;;;5030036;28;20558;-66
2021/03/19 11:04:55;;;;;;;10.03;7.90;;;6.00;99.90;;;;;;5023542;28;20428;-65
2021/03/19 11:07:26;;;;;;;8.87;7.30;;;6.30;99.90;;;;;;5030260;28;20790;-66
2021/03/19 11:10:07;;;;;;;9.47;8.30;;;7.00;99.90;;;;;;5030607;28;20184;-65
2021/03/19 11:12:38;;;;;;;12.37;9.17;;;6.90;99.90;;;;;;5029797;28;20443;-66
2021/03/19 11:15:11;;;;;;;9.33;8.03;;;6.50;99.90;;;;;;5029576;28;20471;-65
2021/03/19 11:17:37;;;;;;;9.70;7.90;;;6.00;99.90;;;;;;5018242;28;20514;-66
2021/03/19 11:20:12;;;;;;;8.63;7.67;;;5.50;99.90;;;;;;5030921;28;20453;-66
2021/03/19 11:22:45;;;;;;;9.80;8.80;;;5.20;99.90;;;;;;5030383;28;20229;-65
2021/03/19 11:25:20;;;;;;;6.63;6.03;;;5.20;99.90;;;;;;5020250;28;20967;-66
2021/03/19 11:27:45;;;;;;;7.77;5.90;;;5.10;99.90;;;;;;5029747;28;20448;-65
2021/03/19 11:30:35;;;;;;;7.90;7.10;;;5.30;99.90;;;;;;5030197;28;20433;-66
2021/03/19 11:33:06;;;;;;;9.03;7.30;;;5.40;99.90;;;;;;5030048;28;20182;-67
2021/03/19 11:35:31;;;;;;;8.40;7.47;;;5.50;99.90;;;;;;5029921;28;20507;-66
2021/03/19 11:37:57;;;;;;;7.83;5.90;;;5.30;99.90;;;;;;5029793;28;20875;-67
2021/03/19 11:40:23;;;;;;;5.93;5.40;;;5.00;99.90;;;;;;5030353;28;20252;-66
2021/03/19 11:43:00;;;;;;;7.30;5.83;;;4.80;99.90;;;;;;5030137;28;20317;-66
2021/03/19 11:45:27;;;;;;;7.93;6.43;;;5.20;99.90;;;;;;5029852;28;20228;-65
2021/03/19 11:47:59;;;;;;;5.90;5.30;;;5.60;99.90;;;;;;5028808;28;20474;-67
2021/03/19 11:50:33;;;;;;;7.00;6.30;;;5.70;99.90;;;;;;5030004;28;20420;-66
2021/03/19 11:53:12;;;;;;;6.67;5.60;;;5.80;99.90;;;;;;5029919;28;20796;-67
2021/03/19 11:55:47;;;;;;;5.90;5.40;;;5.70;99.90;;;;;;5032454;28;20436;-67
2021/03/19 11:58:16;;;;;;;6.20;5.67;;;6.10;99.90;;;;;;5033503;28;20482;-66
2021/03/19 12:00:43;;;;;;;5.37;4.70;;;6.40;99.90;;;;;;5033366;28;21186;-66
2021/03/19 12:03:29;;;;;;;6.50;5.90;;;6.40;99.90;;;;;;5033577;28;20516;-66
2021/03/19 12:05:56;;;;;;;7.77;6.47;;;6.00;99.90;;;;;;5033223;28;20865;-65
2021/03/19 12:08:21;;;;;;;7.23;5.80;;;5.50;99.90;;;;;;5033034;28;20464;-65
2021/03/19 12:10:47;;;;;;;6.83;6.10;;;5.20;99.90;;;;;;5030308;28;20958;-65
2021/03/19 12:13:15;;;;;;;9.23;7.73;;;5.00;99.90;;;;;;5021691;28;20190;-65
2021/03/19 12:15:40;;;;;;;9.40;8.43;;;4.70;99.90;;;;;;5029651;28;20746;-65
2021/03/19 12:18:07;;;;;;;10.70;8.50;;;4.60;99.90;;;;;;5029849;28;20468;-65
2021/03/19 12:20:32;;;;;;;11.57;9.90;;;4.70;99.90;;;;;;5030250;28;20174;-64
2021/03/19 12:22:58;;;;;;;9.10;8.03;;;4.90;99.90;;;;;;5030103;28;21099;-64
2021/03/19 12:25:32;;;;;;;12.83;10.20;;;5.00;99.90;;;;;;5029405;28;20236;-65
2021/03/19 12:27:58;;;;;;;9.20;7.67;;;5.00;99.90;;;;;;5029716;28;20568;-66
2021/03/19 12:30:25;;;;;;;9.47;8.50;;;5.00;99.90;;;;;;5029255;28;20433;-66
2021/03/19 12:32:53;;;;;;;9.97;8.97;;;4.70;99.90;;;;;;5029926;28;20431;-65
2021/03/19 12:35:21;;;;;;;10.73;8.20;;;4.60;99.90;;;;;;5029549;28;20428;-66
2021/03/19 12:37:47;;;;;;;11.73;9.30;;;4.50;99.90;;;;;;5029882;28;20483;-65
2021/03/19 12:40:13;;;;;;;10.00;9.00;;;4.40;99.90;;;;;;5030071;28;20464;-66
2021/03/19 12:42:39;;;;;;;11.57;8.20;;;4.20;99.90;;;;;;5029594;28;20538;-66
2021/03/19 12:45:07;;;;;;;11.13;9.03;;;4.20;99.90;;;;;;5029081;28;20486;-66
2021/03/19 12:47:33;;;;;;;12.93;10.20;;;4.20;99.90;;;;;;5029631;28;20444;-66
2021/03/19 12:49:58;;;;;;;13.50;9.00;;;4.20;99.90;;;;;;5029862;28;20441;-66
2021/03/19 12:52:24;;;;;;;13.03;10.27;;;4.20;99.90;;;;;;5028264;28;20193;-66
2021/03/19 12:54:49;;;;;;;11.93;10.00;;;4.20;99.90;;;;;;5028819;28;20218;-66
2021/03/19 12:57:15;;;;;;;14.20;10.90;;;4.00;99.90;;;;;;5029246;28;20710;-66
2021/03/19 12:59:41;;;;;;;14.30;11.87;;;4.00;99.90;;;;;;5029116;28;20268;-65
2021/03/19 13:02:07;;;;;;;15.67;12.47;;;4.00;99.90;;;;;;5029138;28;20205;-66
2021/03/19 13:04:33;;;;;;;24.37;16.87;;;3.90;99.90;;;;;;5029356;28;20827;-67
2021/03/19 13:06:59;;;;;;;25.40;16.30;;;3.90;99.90;;;;;;5028835;28;20432;-66
2021/03/19 13:09:24;;;;;;;20.73;13.20;;;4.00;99.90;;;;;;5028935;28;20252;-66
2021/03/19 13:11:50;;;;;;;20.87;13.73;;;4.10;99.90;;;;;;5028782;28;20929;-67
2021/03/19 13:14:16;;;;;;;19.60;14.50;;;4.00;99.90;;;;;;5029021;28;20710;-67
2021/03/19 13:16:41;;;;;;;18.00;12.93;;;4.00;99.90;;;;;;5028531;28;20761;-65